Time;durP1;ratioP1;P1;durP2;ratioP2;P2;SDS_P1;SDS_P2;PMS_P1;PMS_P2;Temp;Humidity;BMP_temperature;BMP_pressure;BME280_temperature;BME280_humidity;BME280_pressure;Samples;Min_cycle;Max_cycle;Signal;HPM_P1;HPM_P2
2022/12/07 00:05:46;;;;;;;1.87;0.80;;;;;;;;;;20826696;28;20238;-67
2022/12/07 00:15:48;;;;;;;1.17;0.53;;;;;;;;;;20904652;23;20214;-66
2022/12/07 00:25:50;;;;;;;1.60;1.00;;;;;;;;;;20874578;28;20271;-66
2022/12/07 00:35:57;;;;;;;1.17;0.80;;;4.50;99.90;;;;;;20857686;28;20283;-66
2022/12/07 00:45:58;;;;;;;1.83;1.03;;;4.70;99.90;;;;;;20814809;28;20210;-66
2022/12/07 00:56:05;;;;;;;1.10;0.60;;;;;;;;;;20861537;28;20251;-66
2022/12/07 01:06:07;;;;;;;1.57;1.03;;;;;;;;;;20855573;28;20218;-66
2022/12/07 01:16:11;;;;;;;1.50;0.90;;;4.50;99.90;;;;;;20853347;28;20233;-66
2022/12/07 01:26:15;;;;;;;1.10;0.70;;;;;;;;;;20830327;28;20928;-66
2022/12/07 01:36:37;;;;;;;1.70;0.77;;;4.40;99.90;;;;;;20862152;28;20217;-66
2022/12/07 01:46:40;;;;;;;1.53;0.87;;;4.30;99.90;;;;;;20873726;28;20209;-66
2022/12/07 01:56:48;;;;;;;0.77;0.60;;;4.40;99.90;;;;;;20885720;28;20229;-66
2022/12/07 02:06:51;;;;;;;1.17;0.70;;;;;;;;;;20885297;28;21054;-66
2022/12/07 02:17:15;;;;;;;1.73;0.80;;;;;;;;;;20869018;28;20223;-66
2022/12/07 02:27:23;;;;;;;1.03;0.77;;;;;;;;;;20884063;28;20279;-66
2022/12/07 02:37:44;;;;;;;2.00;1.30;;;;;;;;;;20894079;28;20287;-66
2022/12/07 02:47:49;;;;;;;1.00;0.80;;;;;;;;;;20884022;28;20210;-66
2022/12/07 02:57:58;;;;;;;1.40;0.90;;;4.30;99.90;;;;;;20882764;28;20218;-66
2022/12/07 03:08:24;;;;;;;1.00;0.70;;;4.30;99.90;;;;;;20882334;28;20209;-66
2022/12/07 03:18:30;;;;;;;1.03;0.70;;;4.30;99.90;;;;;;20897319;28;20604;-66
2022/12/07 03:28:39;;;;;;;1.50;0.80;;;4.40;99.90;;;;;;20895444;28;20241;-66
2022/12/07 03:38:43;;;;;;;0.57;0.50;;;;;;;;;;20863073;28;20213;-66
2022/12/07 03:49:00;;;;;;;1.10;0.67;;;4.20;99.90;;;;;;20846069;28;20287;-66
2022/12/07 03:59:02;;;;;;;2.50;1.10;;;;;;;;;;20861875;28;20875;-66
2022/12/07 04:09:04;;;;;;;1.63;0.97;;;;;;;;;;20859616;28;20283;-66
2022/12/07 04:19:06;;;;;;;0.93;0.60;;;;;;;;;;20848462;28;20237;-66
2022/12/07 04:29:09;;;;;;;0.77;0.60;;;4.00;99.90;;;;;;20874697;28;20214;-67
2022/12/07 04:39:22;;;;;;;1.83;0.67;;;;;;;;;;20876275;28;20295;-66
2022/12/07 04:49:24;;;;;;;1.80;0.90;;;;;;;;;;20854083;28;20209;-66
2022/12/07 04:59:26;;;;;;;2.30;0.80;;;;;;;;;;20851083;28;20264;-67
2022/12/07 05:09:28;;;;;;;1.17;0.80;;;;;;;;;;20845844;28;20217;-66
2022/12/07 05:19:29;;;;;;;1.43;0.83;;;;;;;;;;20860743;28;20283;-66
2022/12/07 05:29:32;;;;;;;2.17;0.60;;;;;;;;;;20869265;28;20229;-66
2022/12/07 05:39:34;;;;;;;2.07;1.13;;;;;;;;;;20878341;28;20645;-66
2022/12/07 05:49:36;;;;;;;1.27;0.60;;;;;;;;;;20868880;28;20595;-66
2022/12/07 05:59:38;;;;;;;1.57;0.80;;;;;;;;;;20860735;28;20592;-66
2022/12/07 06:09:40;;;;;;;0.90;0.60;;;;;;;;;;20778989;28;20226;-66
2022/12/07 06:19:42;;;;;;;0.63;0.60;;;;;;;;;;20857332;22;20291;-68
2022/12/07 06:29:44;;;;;;;2.33;0.70;;;;;;;;;;20909526;28;20210;-68
2022/12/07 06:39:46;;;;;;;1.63;1.30;;;;;;;;;;20905501;28;20603;-68
2022/12/07 06:49:47;;;;;;;2.30;1.17;;;;;;;;;;20908297;28;20757;-68
2022/12/07 06:59:49;;;;;;;1.93;0.97;;;;;;;;;;20914016;28;20562;-68
2022/12/07 07:09:51;;;;;;;1.87;1.07;;;;;;;;;;20933994;28;20548;-68
2022/12/07 07:19:53;;;;;;;1.87;1.10;;;;;;;;;;20993787;28;20229;-68
2022/12/07 07:29:55;;;;;;;2.17;1.10;;;;;;;;;;20898799;28;20207;-68
2022/12/07 07:39:57;;;;;;;1.67;0.93;;;;;;;;;;20842854;28;20712;-68
2022/12/07 07:49:59;;;;;;;1.80;1.03;;;;;;;;;;20907035;28;20202;-68
2022/12/07 08:00:01;;;;;;;2.23;1.33;;;;;;;;;;20899713;28;20224;-68
2022/12/07 08:10:03;;;;;;;1.90;1.30;;;;;;;;;;20906283;28;20222;-68
2022/12/07 08:20:05;;;;;;;1.90;1.07;;;4.30;99.90;;;;;;20906801;28;20205;-68
2022/12/07 08:30:08;;;;;;;3.03;1.47;;;;;;;;;;20906933;28;20218;-68
2022/12/07 08:40:15;;;;;;;1.83;1.10;;;4.50;99.90;;;;;;20887640;28;20713;-69
2022/12/07 08:50:17;;;;;;;1.33;0.97;;;;;;;;;;20882847;28;20272;-69
2022/12/07 09:00:19;;;;;;;2.00;1.33;;;;;;;;;;20897021;28;20202;-68
2022/12/07 09:10:21;;;;;;;2.70;1.43;;;;;;;;;;20902292;28;20214;-68
2022/12/07 09:20:22;;;;;;;1.70;0.90;;;;;;;;;;20902768;28;20209;-70
2022/12/07 09:30:25;;;;;;;3.40;0.87;;;;;;;;;;20901586;28;20292;-69
2022/12/07 09:40:27;;;;;;;3.27;1.57;;;4.90;99.90;;;;;;20900830;28;20673;-69
2022/12/07 09:50:29;;;;;;;2.20;1.60;;;5.00;99.90;;;;;;20901643;28;20210;-70
2022/12/07 10:00:33;;;;;;;1.73;1.10;;;;;;;;;;20901642;28;20232;-69
2022/12/07 10:10:39;;;;;;;2.17;1.20;;;;;;;;;;20899235;28;20339;-68
2022/12/07 10:20:41;;;;;;;3.13;0.97;;;;;;;;;;20901315;28;20263;-68
2022/12/07 10:30:48;;;;;;;2.23;1.20;;;;;;;;;;20900204;28;20221;-68
2022/12/07 10:41:03;;;;;;;1.97;0.87;;;5.30;99.90;;;;;;20898988;28;20264;-70
2022/12/07 10:51:18;;;;;;;1.83;1.10;;;;;;;;;;20898479;28;20221;-70
2022/12/07 11:01:52;;;;;;;3.43;0.97;;;5.30;99.90;;;;;;20895260;28;20205;-69
2022/12/07 11:11:56;;;;;;;0.97;0.70;;;;;;;;;;20901859;28;20251;-68
2022/12/07 11:22:17;;;;;;;1.27;0.90;;;5.30;99.90;;;;;;20906311;28;20215;-71
2022/12/07 11:32:49;;;;;;;2.97;0.80;;;5.30;99.90;;;;;;20908286;28;20221;-70
2022/12/07 11:43:01;;;;;;;1.40;0.80;;;5.40;99.90;;;;;;20907367;28;20377;-70
2022/12/07 11:53:06;;;;;;;1.73;0.97;;;;;;;;;;20909888;28;20283;-68
2022/12/07 12:03:15;;;;;;;2.33;1.20;;;5.40;99.90;;;;;;20903976;28;20693;-68
2022/12/07 12:13:25;;;;;;;2.57;1.20;;;;;;;;;;20908427;28;20272;-70
2022/12/07 12:23:49;;;;;;;1.27;0.80;;;;;;;;;;20909076;22;20229;-66
2022/12/07 12:33:52;;;;;;;2.50;1.20;;;;;;;;;;20805172;28;20284;-65
2022/12/07 12:43:53;;;;;;;3.50;1.00;;;;;;;;;;20776298;28;20210;-65
2022/12/07 12:54:04;;;;;;;1.57;0.90;;;;;;;;;;20791634;28;20849;-66
2022/12/07 13:04:49;;;;;;;1.67;0.87;;;5.50;99.90;;;;;;20809070;28;20633;-65
2022/12/07 13:14:55;;;;;;;0.90;0.50;;;5.40;99.90;;;;;;20796276;28;20217;-65
2022/12/07 13:25:19;;;;;;;1.67;0.50;;;;;;;;;;20801393;28;20280;-65
2022/12/07 13:35:35;;;;;;;0.80;0.43;;;;;;;;;;20805041;28;20218;-65
2022/12/07 13:45:49;;;;;;;0.67;0.30;;;;;;;;;;20816092;28;20625;-65
2022/12/07 13:55:58;;;;;;;0.30;0.17;;;;;;;;;;20763765;28;20222;-65
2022/12/07 14:06:05;;;;;;;0.80;0.50;;;;;;;;;;20786733;28;20267;-65
2022/12/07 14:16:34;;;;;;;0.87;0.60;;;5.80;99.90;;;;;;20785821;28;20222;-65
2022/12/07 14:26:36;;;;;;;0.70;0.37;;;;;;;;;;20770301;28;20222;-65
2022/12/07 14:36:38;;;;;;;0.77;0.30;;;;;;;;;;20801664;28;20249;-65
2022/12/07 14:46:40;;;;;;;1.60;0.60;;;;;;;;;;20800547;28;20286;-65
2022/12/07 14:56:43;;;;;;;0.80;0.50;;;;;;;;;;20799968;28;20260;-65
2022/12/07 15:06:55;;;;;;;0.93;0.60;;;;;;;;;;20783142;28;20218;-65
2022/12/07 15:16:58;;;;;;;0.57;0.43;;;;;;;;;;20813142;28;20222;-65
2022/12/07 15:27:00;;;;;;;0.93;0.50;;;;;;;;;;20796400;28;20222;-65
2022/12/07 15:37:04;;;;;;;0.93;0.60;;;;;;;;;;20780495;28;20288;-65
2022/12/07 15:47:06;;;;;;;0.93;0.57;;;;;;;;;;20811328;28;20211;-66
2022/12/07 15:57:08;;;;;;;0.80;0.60;;;;;;;;;;20794840;28;20218;-65
2022/12/07 16:07:11;;;;;;;1.13;0.57;;;;;;;;;;20795032;28;20625;-66
2022/12/07 16:17:13;;;;;;;1.23;0.77;;;;;;;;;;20819356;28;20239;-65
2022/12/07 16:27:15;;;;;;;1.17;0.67;;;;;;;;;;20765925;28;20230;-65
2022/12/07 16:37:20;;;;;;;2.20;1.00;;;;;;;;;;20826824;28;20549;-65
2022/12/07 16:47:25;;;;;;;1.90;0.90;;;;;;;;;;20836526;28;20218;-65
2022/12/07 16:57:26;;;;;;;1.50;0.83;;;;;;;;;;20788588;28;20214;-65
2022/12/07 17:07:28;;;;;;;1.83;1.00;;;;;;;;;;20785057;28;20686;-65
2022/12/07 17:17:30;;;;;;;2.07;1.10;;;;;;;;;;20773203;28;20265;-65
2022/12/07 17:27:32;;;;;;;1.90;1.27;;;5.20;99.90;;;;;;20796576;28;20292;-66
2022/12/07 17:37:34;;;;;;;2.00;1.23;;;;;;;;;;20779998;28;20222;-65
2022/12/07 17:47:37;;;;;;;3.30;2.80;;;;;;;;;;20780614;28;20230;-66
2022/12/07 17:57:40;;;;;;;2.97;1.80;;;;;;;;;;20776729;28;20234;-66
2022/12/07 18:07:41;;;;;;;2.50;1.63;;;;;;;;;;20763300;28;20260;-66
2022/12/07 18:17:43;;;;;;;4.17;1.50;;;;;;;;;;20794320;28;20280;-66
2022/12/07 18:27:45;;;;;;;2.77;1.37;;;;;;;;;;20795581;28;20215;-65
2022/12/07 18:37:50;;;;;;;1.77;1.27;;;;;;;;;;20756750;22;20616;-71
2022/12/07 18:47:51;;;;;;;1.33;0.90;;;;;;;;;;20727307;28;20513;-71
2022/12/07 18:57:55;;;;;;;3.73;1.90;;;;;;;;;;20750947;28;20207;-71
2022/12/07 19:08:01;;;;;;;1.80;0.93;;;;;;;;;;20724377;28;20223;-70
2022/12/07 19:18:02;;;;;;;4.47;1.30;;;;;;;;;;20725709;28;20269;-70
2022/12/07 19:28:05;;;;;;;1.10;1.00;;;;;;;;;;20744493;28;20262;-70
2022/12/07 19:38:06;;;;;;;2.73;1.57;;;;;;;;;;20757473;28;20250;-70
2022/12/07 19:48:08;;;;;;;1.37;1.00;;;;;;;;;;20736378;28;20219;-69
2022/12/07 19:58:10;;;;;;;2.40;1.40;;;;;;;;;;20736755;28;20235;-71
2022/12/07 20:08:12;;;;;;;2.00;1.17;;;;;;;;;;20735297;28;20301;-71
2022/12/07 20:18:14;;;;;;;1.73;1.00;;;;;;;;;;20747507;28;20289;-70
2022/12/07 20:28:16;;;;;;;2.40;1.53;;;;;;;;;;20743096;28;20211;-71
2022/12/07 20:38:17;;;;;;;1.60;1.20;;;;;;;;;;20745434;28;20582;-71
2022/12/07 20:48:19;;;;;;;2.07;1.27;;;;;;;;;;20737705;28;20301;-70
2022/12/07 20:58:21;;;;;;;1.60;1.20;;;;;;;;;;20735607;28;20239;-70
2022/12/07 21:08:23;;;;;;;1.17;0.83;;;;;;;;;;20734538;28;20234;-71
2022/12/07 21:18:25;;;;;;;2.00;1.23;;;;;;;;;;20741540;28;20261;-69
2022/12/07 21:28:27;;;;;;;3.10;1.43;;;;;;;;;;20736740;28;20289;-69
2022/12/07 21:38:29;;;;;;;3.70;1.60;;;;;;;;;;20748403;28;20630;-69
2022/12/07 21:48:31;;;;;;;0.97;0.80;;;;;;;;;;20738221;28;20219;-69
2022/12/07 21:58:33;;;;;;;3.40;1.57;;;;;;;;;;20736896;28;20231;-69
2022/12/07 22:08:35;;;;;;;2.30;1.50;;;;;;;;;;20735809;28;20199;-69
2022/12/07 22:18:37;;;;;;;1.63;1.20;;;;;;;;;;20747665;28;20235;-69
2022/12/07 22:28:39;;;;;;;1.70;0.93;;;;;;;;;;20737077;28;20261;-70
2022/12/07 22:38:41;;;;;;;2.43;0.87;;;;;;;;;;20735412;28;20265;-70
2022/12/07 22:48:43;;;;;;;1.90;1.20;;;;;;;;;;20749506;28;20219;-71
2022/12/07 22:58:45;;;;;;;3.03;1.47;;;;;;;;;;20748969;28;20289;-69
2022/12/07 23:08:47;;;;;;;1.73;1.33;;;;;;;;;;20748846;28;20199;-69
2022/12/07 23:18:49;;;;;;;3.23;1.60;;;;;;;;;;20748430;28;20207;-70
2022/12/07 23:28:51;;;;;;;2.20;1.33;;;;;;;;;;20747697;28;20219;-69
2022/12/07 23:38:54;;;;;;;2.43;0.97;;;;;;;;;;20747514;28;20207;-69
2022/12/07 23:48:57;;;;;;;1.80;1.10;;;4.10;99.90;;;;;;20746232;28;20578;-69
2022/12/07 23:59:00;;;;;;;2.30;1.50;;;4.10;99.90;;;;;;20745630;28;20297;-69
